createdAt,value
2022-12-03T00:01:55.178Z,76.10
2022-12-03T00:06:58.816Z,69.10
2022-12-03T00:12:02.630Z,42.50
2022-12-03T00:17:06.358Z,30.50
2022-12-03T00:22:12.691Z,53.80
2022-12-03T00:27:16.761Z,71.00
2022-12-03T00:32:20.395Z,67.50
2022-12-03T00:37:24.211Z,34.50
2022-12-03T00:42:28.034Z,23.90
2022-12-03T00:47:32.160Z,64.20
2022-12-03T00:52:36.089Z,76.90
2022-12-03T00:57:39.808Z,67.40
2022-12-03T01:02:43.636Z,65.60
2022-12-03T01:07:48.063Z,52.50
2022-12-03T01:12:51.799Z,28.30
2022-12-03T01:17:55.498Z,60.00
2022-12-03T01:22:59.255Z,72.40
2022-12-03T01:28:03.001Z,31.30
2022-12-03T01:33:06.816Z,38.90
2022-12-03T01:38:10.530Z,60.20
2022-12-03T01:43:14.248Z,50.40
2022-12-03T01:48:18.457Z,85.40
2022-12-03T01:53:22.395Z,69.40
2022-12-03T01:58:29.851Z,34.10
2022-12-03T02:03:33.553Z,28.20
2022-12-03T02:08:41.149Z,78.90
2022-12-03T02:13:45.704Z,34.70
2022-12-03T02:18:49.514Z,45.30
2022-12-03T02:24:39.416Z,49.50
2022-12-03T02:29:43.341Z,23.60
2022-12-03T02:34:47.274Z,70.00
2022-12-03T02:39:56.681Z,57.40
2022-12-03T02:45:05.455Z,56.30
2022-12-03T02:50:13.871Z,40.10
2022-12-03T02:55:19.181Z,19.90
2022-12-03T03:00:23.428Z,56.10
2022-12-03T03:05:27.419Z,58.70
2022-12-03T03:10:34.544Z,29.40
2022-12-03T03:15:40.806Z,43.60
2022-12-03T03:20:45.855Z,38.60
2022-12-03T03:25:59.375Z,39.30
2022-12-03T03:31:06.753Z,53.20
2022-12-03T03:36:11.918Z,27.30
2022-12-03T03:41:17.000Z,39.70
2022-12-03T03:46:22.262Z,31.80
2022-12-03T03:51:26.677Z,53.40
2022-12-03T03:56:31.495Z,102.80
2022-12-03T04:01:35.345Z,98.10
2022-12-03T04:06:39.220Z,39.30
2022-12-03T04:12:01.586Z,23.40
2022-12-03T04:17:05.228Z,46.30
2022-12-03T04:22:28.076Z,70.80
2022-12-03T04:27:54.940Z,58.60
2022-12-03T04:33:17.913Z,35.20
2022-12-03T04:38:21.536Z,63.40
2022-12-03T04:43:25.458Z,34.50
2022-12-03T04:48:29.488Z,65.10
2022-12-03T04:53:36.017Z,75.40
2022-12-03T04:58:39.799Z,55.00
2022-12-03T05:03:43.424Z,38.50
2022-12-03T05:08:47.242Z,65.20
2022-12-03T05:13:52.641Z,59.30
2022-12-03T05:18:56.429Z,88.60
2022-12-03T05:24:00.059Z,54.70
2022-12-03T05:29:04.185Z,77.70
2022-12-03T05:34:07.885Z,32.90
2022-12-03T05:39:11.525Z,52.00
2022-12-03T05:44:20.322Z,69.70
2022-12-03T05:49:25.632Z,56.20
2022-12-03T05:54:29.357Z,28.40
2022-12-03T05:59:33.189Z,49.00
2022-12-03T06:09:38.889Z,85.10
2022-12-03T06:14:42.703Z,81.90
2022-12-03T06:19:46.338Z,42.00
2022-12-03T06:24:50.894Z,52.50
2022-12-03T06:29:54.795Z,43.30
2022-12-03T06:34:58.923Z,87.60
2022-12-03T06:40:02.756Z,74.30
2022-12-03T06:45:07.482Z,72.60
2022-12-03T06:50:12.354Z,40.10
2022-12-03T06:55:16.698Z,68.60
2022-12-03T07:00:21.232Z,58.80
2022-12-03T07:05:25.085Z,59.20
2022-12-03T07:10:29.012Z,50.50
2022-12-03T07:15:32.899Z,53.70
2022-12-03T07:20:37.236Z,92.10
2022-12-03T07:25:41.781Z,120.60
2022-12-03T07:30:45.602Z,115.50
2022-12-03T07:35:49.542Z,263.70
2022-12-03T07:40:53.464Z,81.00
2022-12-03T07:45:57.294Z,57.40
2022-12-03T07:51:01.349Z,76.10
2022-12-03T07:56:06.064Z,78.90
2022-12-03T08:01:10.800Z,95.80
2022-12-03T08:06:14.945Z,330.70
2022-12-03T08:11:18.784Z,90.40
2022-12-03T08:16:23.671Z,96.60
2022-12-03T08:21:36.627Z,96.60
2022-12-03T08:26:40.590Z,222.60
2022-12-03T08:31:57.471Z,83.10
2022-12-03T08:37:17.065Z,64.40
2022-12-03T08:42:44.008Z,131.50
2022-12-03T08:47:47.872Z,97.60
2022-12-03T08:52:54.598Z,94.20
2022-12-03T08:57:59.849Z,70.80
2022-12-03T09:03:03.674Z,56.20
2022-12-03T09:08:07.590Z,62.90
2022-12-03T09:13:11.441Z,19.90
2022-12-03T09:18:16.917Z,51.40
2022-12-03T09:23:20.723Z,36.80
2022-12-03T09:28:25.655Z,43.50
2022-12-03T09:33:32.791Z,69.90
2022-12-03T09:38:36.711Z,66.10
2022-12-03T09:44:03.338Z,64.10
2022-12-03T09:49:13.926Z,118.10
2022-12-03T09:54:26.033Z,69.00
2022-12-03T09:59:35.391Z,195.60
2022-12-03T10:04:39.213Z,120.70
2022-12-03T10:09:43.794Z,276.60
2022-12-03T10:14:49.557Z,67.20
2022-12-03T10:19:53.412Z,91.30
2022-12-03T10:25:24.350Z,77.30
2022-12-03T10:30:31.176Z,89.30
2022-12-03T10:35:43.538Z,77.00
2022-12-03T10:40:55.142Z,82.40
2022-12-03T10:46:04.400Z,119.70
2022-12-03T10:51:24.135Z,213.40
2022-12-03T10:56:34.657Z,79.60
2022-12-03T11:01:45.567Z,142.80
2022-12-03T11:06:55.762Z,155.80
2022-12-03T11:12:18.100Z,106.10
2022-12-03T11:17:47.388Z,82.30
2022-12-03T11:23:00.942Z,144.30
2022-12-03T11:28:15.781Z,144.20
2022-12-03T11:33:39.980Z,316.30
2022-12-03T11:38:59.235Z,417.60
2022-12-03T11:44:34.238Z,153.70
2022-12-03T11:49:48.545Z,169.00
2022-12-03T11:55:20.594Z,78.50
2022-12-03T12:00:29.630Z,222.60
2022-12-03T12:05:39.255Z,322.40
2022-12-03T12:10:54.907Z,223.80
2022-12-03T12:16:10.873Z,451.90
2022-12-03T12:21:50.624Z,523.30
2022-12-03T12:27:05.000Z,294.10
2022-12-03T12:32:20.582Z,153.40
2022-12-03T12:37:59.655Z,397.20
2022-12-03T12:43:20.443Z,246.40
2022-12-03T12:48:39.445Z,239.00
2022-12-03T12:53:47.115Z,141.50
2022-12-03T12:59:02.877Z,135.90
2022-12-03T13:04:26.087Z,96.90
2022-12-03T13:09:38.968Z,108.80
2022-12-03T13:14:51.361Z,66.80
2022-12-03T13:20:07.457Z,129.60
2022-12-03T13:26:01.713Z,154.20
2022-12-03T13:31:43.854Z,222.70
2022-12-03T13:42:44.883Z,121.90
2022-12-03T13:48:04.951Z,168.80
2022-12-03T13:53:36.467Z,219.60
2022-12-03T14:03:56.539Z,165.90
2022-12-03T14:09:13.379Z,100.40
2022-12-03T14:14:24.044Z,84.30
2022-12-03T14:19:39.813Z,114.30
2022-12-03T14:24:53.894Z,86.70
2022-12-03T14:30:10.477Z,65.90
2022-12-03T14:35:28.591Z,116.80
2022-12-03T14:40:43.432Z,169.90
2022-12-03T14:46:05.598Z,204.10
2022-12-03T14:51:14.153Z,395.60
2022-12-03T14:56:25.369Z,333.00
2022-12-03T15:01:37.900Z,252.50
2022-12-03T15:06:56.711Z,306.70
2022-12-03T15:12:16.398Z,292.10
2022-12-03T15:17:35.362Z,280.30
2022-12-03T15:22:51.097Z,162.50
2022-12-03T15:28:06.737Z,298.60
2022-12-03T15:33:18.725Z,293.30
2022-12-03T15:38:27.678Z,181.00
2022-12-03T15:43:40.192Z,250.60
2022-12-03T15:48:51.839Z,192.20
2022-12-03T15:54:01.608Z,275.60
2022-12-03T15:59:12.477Z,201.90
2022-12-03T16:04:18.516Z,190.10
2022-12-03T16:09:26.953Z,101.50
2022-12-03T16:14:31.363Z,136.10
2022-12-03T16:19:35.297Z,92.40
2022-12-03T16:24:39.420Z,277.90
2022-12-03T16:29:44.986Z,231.20
2022-12-03T16:34:48.827Z,300.80
2022-12-03T16:39:52.851Z,228.70
2022-12-03T16:45:09.168Z,182.60
2022-12-03T16:50:19.842Z,220.90
2022-12-03T16:55:26.134Z,267.60
2022-12-03T17:00:30.270Z,170.80
2022-12-03T17:05:33.989Z,188.00
2022-12-03T17:10:38.916Z,109.00
2022-12-03T17:15:42.999Z,101.20
2022-12-03T17:20:46.798Z,97.10
2022-12-03T17:25:51.033Z,122.70
2022-12-03T17:30:55.047Z,140.00
2022-12-03T17:35:58.991Z,105.90
2022-12-03T17:41:03.120Z,117.00
2022-12-03T17:46:07.712Z,142.20
2022-12-03T17:51:12.361Z,146.40
2022-12-03T17:56:16.022Z,267.00
2022-12-03T18:01:20.673Z,210.50
2022-12-03T18:06:25.109Z,90.80
2022-12-03T18:11:29.135Z,183.60
2022-12-03T18:16:33.662Z,152.00
2022-12-03T18:21:37.500Z,103.60
2022-12-03T18:26:43.106Z,82.00
2022-12-03T18:31:56.965Z,50.70
2022-12-03T18:37:18.351Z,87.80
2022-12-03T18:42:31.356Z,81.40
2022-12-03T18:47:49.264Z,167.90
2022-12-03T18:58:49.669Z,104.30
2022-12-03T19:03:56.067Z,211.10
2022-12-03T19:09:00.957Z,223.40
2022-12-03T19:14:06.895Z,337.70
2022-12-03T19:25:05.175Z,211.00
2022-12-03T19:30:12.949Z,448.40
2022-12-03T19:35:18.983Z,612.00
2022-12-03T19:40:24.240Z,351.60
2022-12-03T19:45:29.513Z,575.10
2022-12-03T19:50:33.283Z,644.60
2022-12-03T19:55:37.914Z,492.80
2022-12-03T20:00:43.347Z,381.70
2022-12-03T20:05:49.164Z,190.70
2022-12-03T20:10:54.750Z,321.80
2022-12-03T20:16:06.820Z,449.00
2022-12-03T20:21:14.329Z,223.20
2022-12-03T20:26:22.148Z,208.00
2022-12-03T20:31:30.740Z,264.10
2022-12-03T20:36:35.484Z,444.20
2022-12-03T20:41:39.437Z,202.30
2022-12-03T20:46:43.415Z,219.20
2022-12-03T20:52:15.348Z,176.80
2022-12-03T20:57:20.813Z,217.90
2022-12-03T21:02:26.427Z,201.30
2022-12-03T21:07:30.923Z,179.80
2022-12-03T21:12:35.054Z,145.20
2022-12-03T21:17:38.706Z,133.90
2022-12-03T21:22:42.747Z,142.80
2022-12-03T21:27:46.483Z,130.50
2022-12-03T21:32:50.355Z,99.30
2022-12-03T21:37:54.378Z,99.60
2022-12-03T21:42:58.207Z,125.80
2022-12-03T21:48:05.218Z,128.40
2022-12-03T21:53:11.459Z,87.20
2022-12-03T21:58:15.025Z,133.40
2022-12-03T22:03:19.830Z,62.80
2022-12-03T22:08:23.974Z,137.50
2022-12-03T22:13:28.444Z,200.40
2022-12-03T22:18:34.007Z,149.40
2022-12-03T22:23:40.333Z,110.90
2022-12-03T22:28:47.505Z,136.90
2022-12-03T22:33:51.516Z,132.40
2022-12-03T22:38:56.239Z,157.00
2022-12-03T22:44:00.414Z,181.10
2022-12-03T22:49:07.310Z,162.60
2022-12-03T22:54:11.962Z,125.80
2022-12-03T22:59:15.767Z,104.60
2022-12-03T23:04:20.063Z,103.30
2022-12-03T23:09:23.923Z,136.80
2022-12-03T23:14:27.674Z,99.40
2022-12-03T23:19:31.486Z,48.20
2022-12-03T23:24:35.415Z,86.80
2022-12-03T23:29:39.325Z,92.50
2022-12-03T23:34:43.741Z,128.60
2022-12-03T23:39:48.711Z,103.90
2022-12-03T23:44:52.741Z,126.10
2022-12-03T23:49:56.509Z,91.80
2022-12-03T23:55:00.284Z,95.60
